Stations météo

réclame
Mon MeteoGroup
Melle, Belgique (6434): Température de l'air & dewpoint: 19.05.2018 12:00:00 - 25.05.2018 12:00:00 (CEST)Melle, Belgique (6434): Vitesse du vent & gusts: 19.05.2018 12:00:00 - 25.05.2018 12:00:00 (CEST)Melle, Belgique (6434): Direction du vent: 19.05.2018 12:00:00 - 25.05.2018 12:00:00 (CEST)Melle, Belgique (6434): reduced air pressure: 19.05.2018 12:00:00 - 25.05.2018 12:00:00 (CEST)Melle, Belgique (6434): Ensoleillement: 19.05.2018 12:00:00 - 25.05.2018 12:00:00 (CEST)Melle, Belgique (6434): Quantités de précipitations: 19.05.2018 12:00:00 - 25.05.2018 12:00:00 (CEST)
Date & Time tt [°C] td [°C] ff [km/h] ff [knt] fx [km/h] fx [knt] dd ppp [hPa] sd [min] rr [mm]
25.05.2018 12:00:00 21,2 16,5 6 4 11 6 W 1018,1 60 0,0
25.05.2018 11:00:00 19,1 15,4 7 4 14 7 W 1018,0 60 0,0
25.05.2018 10:00:00 17,8 15,1 8 5 14 8 SW 1018,2 60 0,0
25.05.2018 09:00:00 16,5 14,9 7 4 9 5 WSW 1018,0 60 0,0
25.05.2018 08:00:00 15,4 14,6 4 2 9 5 S 1017,7 60 0,0
25.05.2018 07:00:00 13,2 13,2 5 3 7 4 SE 1017,6 37 0,0
25.05.2018 06:00:00 12,2 12,2 4 2 6 4 SSW 1017,2 0 0,0
25.05.2018 05:00:00 13,0 12,7 4 2 10 6 SE 1016,8 0 0,0
25.05.2018 04:00:00 13,7 13,5 9 5 11 6 S 1016,6 0 0,0
25.05.2018 03:00:00 14,2 14,2 4 2 4 2 S 1016,8 0 0,0
25.05.2018 02:00:00 15,3 15,3 4 2 9 5 SSE 1016,9 0 0,0
25.05.2018 01:00:00 15,7 15,7 6 3 11 6 E 1016,6 0 0,0
25.05.2018 00:00:00 16,2 15,8 5 3 11 6 SSW 1017,1 0 0,0
24.05.2018 23:00:00 15,7 15,7 4 2 10 6 SE 1016,9 0 0,0
24.05.2018 22:00:00 16,1 16,0 4 2 7 4 S 1016,5 0 0,0
24.05.2018 21:00:00 16,9 16,4 5 3 13 7 NNE 1016,4 0 0,1
24.05.2018 20:00:00 17,1 15,8 4 2 27 15 NE 1016,3 0 1,6
24.05.2018 19:00:00 18,2 16,4 12 7 32 17 SSW 1016,6 0 1,0
24.05.2018 18:00:00 22,4 15,5 11 6 21 11 E 1015,8 16 0,0
24.05.2018 17:00:00 23,4 16,0 12 7 20 11 ENE 1015,7 57 0,0
24.05.2018 16:00:00 23,3 15,9 9 5 17 9 ENE 1016,5 39 0,0
24.05.2018 15:00:00 23,0 15,5 10 5 21 11 E 1016,9 42 0,0
24.05.2018 14:00:00 22,9 16,1 11 6 26 14 ENE 1017,4 45 0,0
24.05.2018 13:00:00 22,9 15,6 11 6 22 12 E 1017,7 60 0,0
24.05.2018 12:00:00 21,8 14,6 10 5 17 9 ENE 1018,2 60 0,0
24.05.2018 11:00:00 19,9 13,6 11 6 22 12 E 1018,8 51 0,0
24.05.2018 10:00:00 18,6 12,7 12 6 19 11 ENE 1019,1 58 0,0
24.05.2018 09:00:00 17,5 12,9 12 6 22 12 E 1019,2 47 0,0
24.05.2018 08:00:00 16,0 12,7 7 4 13 7 NE 1019,1 13 0,0
24.05.2018 07:00:00 14,8 12,5 10 5 15 8 NE 1019,1 0 0,0
24.05.2018 06:00:00 13,7 13,7 7 4 10 5 NE 1019,1 0 0,0
24.05.2018 05:00:00 14,3 14,3 6 3 8 4 NNE 1019,5 0 0,0
24.05.2018 04:00:00 14,2 14,1 0 0 5 3 N 1019,8 0 0,0
24.05.2018 03:00:00 15,1 14,9 0 0 7 4 N 1019,8 0 0,0
24.05.2018 02:00:00 15,9 15,0 4 2 11 6 NW 1020,4 0 0,0
24.05.2018 01:00:00 17,0 15,6 10 6 26 14 S 1020,6 0 0,1
24.05.2018 00:00:00 17,0 15,2 5 3 53 29 NE 1020,2 0 4,8
23.05.2018 23:00:00 17,3 17,1 4 2 5 3 NNW 1019,8 0 0,0
23.05.2018 22:00:00 17,5 16,8 0 0 4 2 N 1019,8 0 0,2
23.05.2018 21:00:00 17,5 16,4 4 2 14 8 ESE 1019,5 - -
23.05.2018 20:00:00 18,7 16,5 11 6 23 13 SSE 1019,3 0 0,5
23.05.2018 19:00:00 22,0 15,4 11 6 20 11 NE 1018,6 19 0,0
23.05.2018 18:00:00 22,0 15,3 14 8 26 14 NE 1018,7 31 0,0
23.05.2018 17:00:00 21,2 15,7 15 8 28 15 NNE 1018,9 30 0,0
23.05.2018 16:00:00 21,9 16,2 15 8 25 14 NE 1019,1 56 0,0
23.05.2018 15:00:00 20,8 15,7 10 5 20 11 NE 1019,6 39 0,0
23.05.2018 14:00:00 19,9 16,6 9 5 19 10 ENE 1019,9 22 0,0
23.05.2018 13:00:00 18,1 15,9 9 5 22 12 NNE 1020,3 2 0,0
23.05.2018 12:00:00 17,5 15,8 13 7 23 13 NNE 1020,0 21 0,0
23.05.2018 11:00:00 16,4 15,3 11 6 17 9 NNE 1019,9 0 0,0
23.05.2018 10:00:00 15,5 15,2 8 5 14 8 NNE 1019,8 0 0,2
23.05.2018 09:00:00 14,6 14,4 5 3 10 5 N 1019,3 0 0,3
23.05.2018 08:00:00 14,3 13,8 4 2 11 6 NNE 1018,8 0 0,3
23.05.2018 07:00:00 14,3 13,5 7 4 9 5 N 1018,2 0 0,0
23.05.2018 06:00:00 13,9 13,1 6 3 9 5 N 1017,6 0 0,0
23.05.2018 05:00:00 13,6 12,9 4 2 11 6 NW 1017,2 0 0,0
23.05.2018 04:00:00 13,8 13,0 6 3 8 5 W 1016,9 0 0,0
23.05.2018 03:00:00 14,0 13,1 7 4 10 5 W 1016,7 0 0,0
23.05.2018 02:00:00 14,4 13,4 7 4 13 7 W 1016,9 0 0,0
23.05.2018 01:00:00 15,1 14,2 5 3 8 5 W 1016,5 0 0,0
23.05.2018 00:00:00 15,0 14,7 4 2 6 3 NW 1016,2 0 0,0
22.05.2018 23:00:00 15,1 14,4 0 0 5 3 N 1016,1 0 0,0
22.05.2018 22:00:00 16,0 14,6 4 2 7 4 W 1015,5 0 0,0
22.05.2018 21:00:00 16,2 14,9 6 4 9 5 N 1014,9 0 0,0
22.05.2018 20:00:00 16,4 14,3 4 2 19 10 E 1014,9 0 0,1
22.05.2018 19:00:00 18,0 13,9 14 7 25 13 E 1014,7 0 0,3
22.05.2018 18:00:00 18,4 15,0 8 5 19 10 N 1013,9 0 0,1
22.05.2018 17:00:00 18,3 15,3 15 8 29 16 N 1013,0 0 19,2
22.05.2018 16:00:00 20,6 15,7 21 11 34 19 N 1012,8 0 0,3
22.05.2018 15:00:00 23,6 13,5 10 5 18 10 NNE 1012,7 34 0,0
22.05.2018 14:00:00 22,9 13,5 7 4 16 9 ESE 1012,9 40 0,0
22.05.2018 13:00:00 23,0 14,2 10 6 22 12 ESE 1012,9 60 0,0
22.05.2018 12:00:00 21,7 13,8 9 5 17 9 NE 1012,9 60 0,0
22.05.2018 11:00:00 20,5 13,5 10 5 18 10 ENE 1012,9 60 0,0
22.05.2018 10:00:00 19,2 13,1 9 5 16 8 NNE 1013,0 60 0,0
22.05.2018 09:00:00 18,1 13,2 8 4 12 7 N 1012,9 60 0,0
22.05.2018 08:00:00 14,4 12,9 7 4 8 4 W 1012,5 56 0,0
22.05.2018 07:00:00 11,6 11,2 4 2 6 3 W 1012,2 10 0,0
22.05.2018 06:00:00 11,1 10,8 4 2 7 4 SW 1011,9 0 0,0
22.05.2018 05:00:00 11,6 11,1 0 0 9 5 N 1011,8 0 0,0
22.05.2018 04:00:00 12,0 11,2 0 0 5 3 N 1011,8 0 0,0
22.05.2018 03:00:00 12,7 11,2 0 0 5 3 N 1011,8 0 0,0
22.05.2018 02:00:00 14,0 12,1 0 0 7 4 N 1012,0 0 0,0
22.05.2018 01:00:00 16,1 12,6 5 3 14 8 NE 1012,1 0 0,0
22.05.2018 00:00:00 17,5 12,6 11 6 14 8 N 1012,3 0 0,0
21.05.2018 23:00:00 17,4 12,3 7 4 10 5 W 1012,3 0 0,0
21.05.2018 22:00:00 19,0 11,5 5 3 18 10 N 1012,0 0 0,0
21.05.2018 21:00:00 20,7 11,1 11 6 26 14 E 1011,8 0 0,0
21.05.2018 20:00:00 22,3 12,6 4 2 10 5 SW 1011,3 0 0,0
21.05.2018 19:00:00 23,1 11,7 8 4 16 9 SSE 1011,7 17 0,0
21.05.2018 18:00:00 24,1 12,5 8 5 23 12 ESE 1011,7 59 0,0
21.05.2018 17:00:00 23,8 12,2 14 8 32 18 SE 1012,4 58 0,0
21.05.2018 16:00:00 23,1 11,2 17 9 32 18 E 1013,1 60 0,0
21.05.2018 15:00:00 23,4 11,2 20 11 32 17 ENE 1013,4 51 0,0
21.05.2018 14:00:00 22,5 11,2 14 8 27 15 ENE 1013,7 50 0,0
21.05.2018 13:00:00 19,3 13,1 14 8 23 13 NE 1014,5 33 0,0
21.05.2018 12:00:00 19,8 13,5 11 6 20 11 ENE 1015,0 54 0,0
21.05.2018 11:00:00 17,2 13,6 8 5 14 7 ENE 1015,6 15 0,2
21.05.2018 10:00:00 16,3 13,2 8 4 20 11 ENE 1015,7 17 0,0
21.05.2018 09:00:00 15,4 13,8 9 5 13 7 ENE 1016,2 11 0,0
21.05.2018 08:00:00 14,1 13,1 7 4 12 7 ENE 1016,4 0 0,1
21.05.2018 07:00:00 13,8 12,7 9 5 12 6 ENE 1016,8 0 0,0
21.05.2018 06:00:00 13,2 12,7 5 3 9 5 E 1017,3 0 0,0
21.05.2018 05:00:00 12,4 12,1 0 0 - - N 1017,2 0 0,0
21.05.2018 04:00:00 12,1 11,5 0 0 6 3 N 1017,9 0 0,0
21.05.2018 03:00:00 14,5 13,1 6 3 10 5 ENE 1018,5 0 0,0
21.05.2018 02:00:00 14,3 13,3 7 4 9 5 ENE 1019,0 0 0,0
21.05.2018 01:00:00 14,0 13,0 0 0 10 6 N 1019,3 0 0,0
21.05.2018 00:00:00 14,7 13,1 5 3 14 8 N 1019,2 0 0,0
20.05.2018 23:00:00 15,4 13,6 4 2 12 6 NNW 1019,9 0 0,3
20.05.2018 22:00:00 18,5 11,6 5 3 22 12 SE 1020,0 0 0,1
20.05.2018 21:00:00 19,7 12,1 4 2 22 12 W 1019,4 34 0,0
20.05.2018 20:00:00 20,7 12,3 14 8 29 16 N 1018,7 56 0,0
20.05.2018 19:00:00 23,0 9,2 13 7 23 13 ENE 1018,7 60 0,0
20.05.2018 18:00:00 22,8 8,9 13 7 24 13 NE 1019,0 60 0,0
20.05.2018 17:00:00 22,4 8,1 15 8 23 13 NE 1019,9 60 0,0
20.05.2018 16:00:00 21,5 8,3 13 7 26 14 ENE 1020,7 60 0,0
20.05.2018 15:00:00 20,4 9,7 11 6 27 14 NE 1021,5 59 0,0
20.05.2018 14:00:00 20,2 9,5 14 8 22 12 NE 1022,0 59 0,0
20.05.2018 13:00:00 18,5 10,2 11 6 21 12 ENE 1022,8 60 0,0
20.05.2018 12:00:00 17,1 10,3 12 6 23 13 NE 1023,2 60 0,0
20.05.2018 11:00:00 15,2 10,8 9 5 17 9 NNE 1023,6 60 0,0
20.05.2018 10:00:00 12,0 9,4 8 4 16 9 NE 1023,7 54 0,0
20.05.2018 09:00:00 10,4 10,1 9 5 16 9 NE 1023,7 4 0,0
20.05.2018 08:00:00 9,9 9,9 11 6 16 9 NE 1023,7 0 0,0
20.05.2018 07:00:00 9,6 9,6 8 5 18 10 NE 1023,5 0 0,0
20.05.2018 06:00:00 9,1 9,1 11 6 17 9 NE 1023,6 0 0,0
20.05.2018 05:00:00 8,3 8,3 9 5 15 8 NNE 1023,5 0 0,0
20.05.2018 04:00:00 6,2 6,2 6 3 10 6 NNE 1023,6 0 0,0
20.05.2018 03:00:00 4,6 4,6 5 3 7 4 N 1023,8 0 0,0
20.05.2018 02:00:00 5,4 5,4 4 2 6 3 N 1023,8 0 0,0
20.05.2018 01:00:00 6,1 5,9 4 2 5 3 N 1023,9 0 0,0
20.05.2018 00:00:00 7,3 6,8 4 2 6 4 NNE 1024,1 0 0,0
19.05.2018 23:00:00 7,7 6,6 4 2 7 4 N 1023,8 0 0,0
19.05.2018 22:00:00 10,8 8,8 6 3 12 7 NNE 1023,5 0 0,0
19.05.2018 21:00:00 11,8 9,5 6 3 16 9 NE 1023,2 0 0,0
19.05.2018 20:00:00 11,9 9,5 11 6 19 11 NNE 1023,4 0 0,0
19.05.2018 19:00:00 12,2 9,2 13 7 19 11 NNE 1023,2 0 0,0
19.05.2018 18:00:00 12,3 9,0 12 7 21 12 NNE 1023,6 0 0,0
19.05.2018 17:00:00 12,2 8,6 11 6 16 9 NE 1024,0 0 0,0
19.05.2018 16:00:00 12,1 8,6 9 5 17 9 NNE 1024,3 0 0,0
19.05.2018 15:00:00 11,5 8,3 11 6 20 11 NNE 1024,4 0 0,0
19.05.2018 14:00:00 11,5 8,1 11 6 16 9 N 1024,6 0 0,0
19.05.2018 13:00:00 11,1 7,8 9 5 17 9 N 1024,6 0 0,0
19.05.2018 12:00:00 11,0 7,5 9 5 16 9 N 1024,7 0 0,0

tt = Température de l'air
td = dewpoint
ff = Vitesse du vent
fx = gusts
dd = Direction du vent
ppp = reduced air pressure
sd = Ensoleillement
rr = Quantités de précipitations

stations d'obs. à proximité